Covanta Holding Corp (CVA) Latest Bloomsberg Price


Mffais Ranking #2181 Overall / #4 Industry
Industry: Waste Management

Number of Companies: 171 (Ranking #995 Overall/#4 Industry)
Inflow: $ 53,307 (K) (Ranking #1280 Overall/#4 Industry)
Outflow: $ -84,779 (K)
Mffais Flow: $ -31,472 (K) (Ranking #2181 Overall/#4 Industry)


Receive a FREE weekly executive review of stocks moving into the top 10, taking the top industy spot or moving up within their industry. Sent directly to your Inbox every Saturday. Sign up today and get last week's review immediately sent to you.

We value and respect your privacy. Please read our Terms and Conditions which states our firm commitment to your privacy. Your email address will not be shared with a third party, nor will it be sold or used for purposes other than subscription for the weekly review.

Owner CPOR Shares Action Qty Chg Invested (K) Total Current Value (K)
Nuveen Asset Management Llc 2016-09-30 1,167,657 Added More 651,994 $ 11,051 $ 19,791
Snyder Capital Management L P 2016-09-30 1,903,858 Added More 487,227 $ 8,258 $ 32,270
Deprince Race Zollo Inc 2016-09-30 460,732 New Holding 460,732 $ 7,809 $ 7,809
Emerald Acquisition Ltd 2016-09-30 462,866 Added More 348,699 $ 5,910 $ 7,845
Raymond James Associates 2016-09-30 662,963 Added More 243,375 $ 4,125 $ 11,237
Stifel Financial Corp 2016-09-30 348,183 Added More 144,868 $ 2,455 $ 5,901
Daiwa Sb Investments Ltd 2016-09-30 103,800 New Holding 103,800 $ 1,759 $ 1,759
Advisors Asset Management Inc 2016-09-30 1,517,338 Added More 99,798 $ 1,691 $ 25,718
Parametric Portfolio Associates Llc 2016-09-30 383,448 Added More 52,713 $ 893 $ 6,499
Cna Financial Corp 2016-09-30 201,706 Added More 52,320 $ 886 $ 3,418
Global X Management Co Llc 2016-09-30 488,458 Added More 48,632 $ 824 $ 8,279
Guggenheim Capital Llc 2016-09-30 245,494 Added More 42,174 $ 714 $ 4,161
Ridgeworth Capital Management Llc 2016-09-30 2,963,543 Added More 34,000 $ 576 $ 50,232
Ahl Partners Llp 2016-09-30 28,749 New Holding 28,749 $ 487 $ 487
Raymond James Financial Services Advisors Inc 2016-09-30 323,326 Added More 23,223 $ 393 $ 5,480
Comerica Bank 2016-09-30 36,334 Added More 22,715 $ 385 $ 615
Park Circle Co 2016-09-30 22,000 Added More 20,500 $ 347 $ 372
Verition Fund Management Llc 2016-09-30 17,815 New Holding 17,815 $ 301 $ 301
Capital Guardian Trust Co 2016-09-30 333,442 Added More 17,720 $ 300 $ 5,651
Nisa Investment Advisors Llc 2016-09-30 20,200 Added More 16,470 $ 279 $ 342
Pinnacle Associates Ltd 2016-09-30 37,310 Added More 15,850 $ 268 $ 632
Cubist Systematic Strategies Llc 2016-09-30 15,746 New Holding 15,746 $ 266 $ 266
Advisors Capital Management Llc 2016-09-30 127,762 Added More 14,305 $ 242 $ 2,165
Blackrock Inc 2016-09-30 35,530 Added More 13,187 $ 223 $ 602
Diam Co Ltd 2016-09-30 33,800 Added More 12,200 $ 206 $ 572
Oppenheimer Co Inc 2016-09-30 24,249 Added More 11,862 $ 201 $ 411
Hightower Advisors Llc 2016-09-30 136,882 Added More 11,599 $ 196 $ 2,320
Teachers Advisors Inc 2016-09-30 106,855 Added More 9,869 $ 167 $ 1,811
Sg Americas Securities Llc 2016-09-30 61,605 Added More 8,027 $ 136 $ 1,044
Sei Investments Co 2016-09-30 15,937 Added More 7,320 $ 124 $ 270
Loews Corp 2016-09-30 24,246 Added More 7,110 $ 120 $ 410
Natixis Asset Management 2016-09-30 51,999 Added More 6,960 $ 117 $ 881
Rothschild Investment Corp Il 2016-09-30 46,850 Added More 6,750 $ 114 $ 794
Ramsey Quantitative Systems 2016-09-30 39,865 Added More 6,229 $ 105 $ 675
Rhumbline Advisers 2016-09-30 126,363 Added More 5,736 $ 97 $ 2,141
Northern Trust Corp 2016-09-30 706,966 Added More 5,492 $ 93 $ 11,983
Fdx Advisors Inc 2016-09-30 63,114 Added More 5,108 $ 86 $ 1,069
Chartwell Investment Partners Llc 2016-09-30 65,000 Added More 5,000 $ 84 $ 1,101
Legal General Group Plc 2016-09-30 86,131 Added More 4,944 $ 83 $ 1,459
Grassi Investment Management 2016-09-30 45,079 Added More 4,756 $ 80 $ 764
Pnc Financial Services Group Inc 2016-09-30 10,200 Added More 4,400 $ 74 $ 172
Northwestern Mutual Wealth Management Co 2016-09-30 14,730 Added More 4,158 $ 70 $ 249
Woodmont Investment Counsel Llc 2016-09-30 3,960 New Holding 3,960 $ 67 $ 67
Kcg Holdings Inc 2016-09-30 26,091 Added More 3,917 $ 66 $ 442
Cibc World Markets Inc 2016-09-30 19,317 Added More 3,584 $ 60 $ 327
Baird Financial Group Inc 2016-09-30 51,521 Added More 3,496 $ 59 $ 873
Wellington Shields Capital Management Llc 2016-09-30 76,100 Added More 3,250 $ 55 $ 1,289
Cadence Capital Management Llc 2016-09-30 17,835 Added More 2,713 $ 45 $ 302
Nationwide Fund Advisors 2016-09-30 18,286 Added More 2,218 $ 37 $ 309
Bessemer Group Inc 2016-09-30 11,375 Added More 2,015 $ 34 $ 192
California State Teachers Retirement System 2016-09-30 248,414 Added More 1,900 $ 32 $ 4,210
Capital International Sarl 2016-09-30 34,700 Added More 1,700 $ 28 $ 588
Horizon Kinetics Llc 2016-09-30 27,680 Added More 1,664 $ 28 $ 469
Meridian Investment Counsel Inc 2016-09-30 17,300 Added More 1,500 $ 25 $ 293
Creative Planning 2016-09-30 3,248 Added More 1,400 $ 23 $ 55
Bb T Securities Llc 2016-09-30 37,680 Added More 1,264 $ 21 $ 638
Mariner Wealth Advisors Llc 2016-09-30 32,055 Added More 1,184 $ 20 $ 543
Sit Investment Associates Inc 2016-09-30 4,700 Added More 1,100 $ 18 $ 79
Fifth Third Bancorp 2016-09-30 18,492 Added More 697 $ 11 $ 313
Group One Trading L P 2016-09-30 634 New Holding 634 $ 10 $ 10
Markston International Llc 2016-09-30 193,286 Added More 600 $ 10 $ 3,276
Trexquant Investment Lp 2016-09-30 13,261 Added More 570 $ 9 $ 224
Qs Investors Llc 2016-09-30 7,576 Added More 528 $ 8 $ 128
Zurcher Kantonalbank Zurich Cantonalbank 2016-09-30 3,327 Added More 507 $ 8 $ 56
Citizens Financial Group Inc Ri 2016-09-30 200 New Holding 200 $ 3 $ 3
Advisor Group Inc 2016-09-30 3,554 Added More 156 $ 2 $ 60
Wellington Shields Co Llc 2016-09-30 15,846 Added More 89 $ 1 $ 268
Wfg Advisors Lp 2016-09-30 309 Added More 5 $ 0 $ 5
Farmers Merchants Investments Inc 2016-09-30 768 No Change 0 $ 0 $ 13
Tortoise Capital Advisors L L C 2016-09-30 400 No Change 0 $ 0 $ 6
Capital International Inc Ca 2016-09-30 5,700 No Change 0 $ 0 $ 96
Winfield Associates Inc 2016-09-30 70 No Change 0 $ 0 $ 1
Bluestein R H Co 2016-09-30 10,000 No Change 0 $ 0 $ 169
Panagora Asset Management Inc 2016-09-30 4,000 No Change 0 $ 0 $ 67
Delta Asset Management Llc Tn 2016-09-30 500 No Change 0 $ 0 $ 8
Adirondack Research Management Inc 2016-09-30 301,800 No Change 0 $ 0 $ 5,115
Gamco Investors Inc Et Al 2016-09-30 233,000 No Change 0 $ 0 $ 3,949
Howe Rusling Inc 2016-09-30 625 No Change 0 $ 0 $ 10
Utah Retirement Systems 2016-09-30 21,165 No Change 0 $ 0 $ 358
Primecap Management Co Ca 2016-09-30 170,000 No Change 0 $ 0 $ 2,881
Mraz Amerine Associates Inc 2016-09-30 40,250 No Change 0 $ 0 $ 682
Handelsbanken Fonder Ab 2016-09-30 45,000 No Change 0 $ 0 $ 762
Kbc Group Nv 2016-09-30 45,094 No Change 0 $ 0 $ 764
Firstmerit Bank N A Trustee 2016-06-30 18,538 No Change 0 $ 0 $ 304
Old National Bancorp In 2016-09-30 21,490 No Change 0 $ 0 $ 364
Msi Financial Services Inc 2016-09-30 63 No Change 0 $ 0 $ 1
Zuckerman Investment Group Llc 2016-09-30 10,200 No Change 0 $ 0 $ 172
United Fire Group Inc 2016-09-30 32 No Change 0 $ 0 $ 0
Firsthand Capital Management Inc 2016-09-30 10,000 No Change 0 $ 0 $ 169
State Of New Jersey Common Pension Fund D 2016-09-30 700,000 No Change 0 $ 0 $ 11,865
K J Harrison Partners Inc 2016-09-30 100,000 No Change 0 $ 0 $ 1,695
Gabelli Funds Llc 2016-09-30 175,000 No Change 0 $ 0 $ 2,966
Capital International Ltd Ca 2016-09-30 32,500 No Change 0 $ 0 $ 550
Moody National Bank Trust Division 2016-09-30 25,225 No Change 0 $ 0 $ 427
Huff W R Asset Management Co Llc De 2016-09-30 64,210 No Change 0 $ 0 $ 1,088
Proficio Capital Partners Llc 2016-09-30 47 No Change 0 $ 0 $ 0
Integrated Investment Consultants Llc 2016-09-30 2,896 No Change 0 $ 0 $ 49
Enterprise Financial Services Corp 2016-09-30 520 No Change 0 $ 0 $ 8
Jacobi Capital Management Llc 2016-09-30 600 No Change 0 $ 0 $ 10
Washington Capital Management Inc 2016-09-30 21,700 No Change 0 $ 0 $ 367
American National Insurance Co Tx 2016-09-30 30,825 No Change 0 $ 0 $ 522
Parkwood Llc 2016-09-30 24,569 No Change 0 $ 0 $ 416
Prudential Plc 2016-09-30 13,825 No Change 0 $ 0 $ 234
Jupiter Asset Management Ltd 2016-09-30 779,323 No Change 0 $ 0 $ 13,209
Advisory Services Network Llc 2016-09-30 541 No Change 0 $ 0 $ 9
American National Registered Investment Advisor Inc 2016-09-30 27,950 No Change 0 $ 0 $ 473
Checchi Capital Advisers Llc 2016-09-30 0 Sold All -66 $ -1 $ 0
Tower Research Capital Llc Trc 2016-09-30 0 Sold All -100 $ -1 $ 0
Us Financial Advisors Llc 2016-06-30 0 Sold All -104 $ -1 $ 0
American International Group Inc 2016-09-30 2,753 Sold Some -119 $ -2 $ 46
Sunbelt Securities Inc 2016-09-30 0 Sold All -192 $ -3 $ 0
Quadrant Capital Group Llc 2016-09-30 0 Sold All -243 $ -4 $ 0
Ibm Retirement Fund 2016-09-30 11,226 Sold Some -543 $ -9 $ 190
Parkside Financial Bank Trust 2016-09-30 775 Sold Some -575 $ -9 $ 13
Cannell Peter B Co Inc 2016-09-30 40,175 Sold Some -625 $ -10 $ 680
Blackrock Investment Management Llc 2016-09-30 46,439 Sold Some -658 $ -11 $ 787
Us Bancorp De 2016-09-30 577 Sold Some -989 $ -16 $ 9
Capital Management Associates Ny 2016-09-30 61,825 Sold Some -1,100 $ -18 $ 1,047
Ifp Advisors Inc 2016-09-30 5,225 Sold Some -1,296 $ -21 $ 88
Hsbc Holdings Plc 2016-09-30 10,301 Sold Some -1,341 $ -22 $ 174
Benedict Financial Advisors Inc 2016-09-30 34,748 Sold Some -1,358 $ -23 $ 588
Bronfman E L Rothschild L P 2016-09-30 14,095 Sold Some -1,466 $ -24 $ 238
Envestnet Asset Management Inc 2016-09-30 38,508 Sold Some -1,881 $ -31 $ 652
Stanley-Laman Group Ltd 2016-09-30 40,246 Sold Some -1,890 $ -32 $ 682
Ladenburg Thalmann Financial Services Inc 2016-09-30 79,373 Sold Some -2,279 $ -38 $ 1,345
Wealthtrust-Arizona Llc 2016-09-30 0 Sold All -2,300 $ -38 $ 0
M T Bank Corp 2016-09-30 40,291 Sold Some -2,344 $ -39 $ 682
Benchmark Capital Advisors 2016-09-30 137,876 Sold Some -2,400 $ -40 $ 2,336
Ingalls Snyder Llc 2016-09-30 34,800 Sold Some -2,600 $ -44 $ 589
Financial Investment Management Group Ltd 2016-09-30 224,430 Sold Some -2,680 $ -45 $ 3,804
Arcadia Investment Management Corp Mi 2016-09-30 0 Sold All -3,800 $ -64 $ 0
Caprock Group Inc 2016-09-30 26,993 Sold Some -3,854 $ -65 $ 457
Nomura Asset Management Co Ltd 2016-09-30 0 Sold All -4,000 $ -67 $ 0
Swiss National Bank 2016-09-30 191,400 Sold Some -6,300 $ -106 $ 3,244
Cutler Group Lp 2016-09-30 10,300 Sold Some -7,500 $ -127 $ 174
Walleye Trading Llc 2016-09-30 200 Sold Some -9,800 $ -166 $ 3
Squarepoint Ops Llc 2016-09-30 0 Sold All -10,000 $ -169 $ 0
Quantitative Systematic Strategies Llc 2016-09-30 0 Sold All -10,536 $ -178 $ 0
Ecofin Ltd 2016-09-30 356,793 Sold Some -11,649 $ -197 $ 6,047
Sawtooth Solutions Llc 2016-09-30 0 Sold All -12,109 $ -205 $ 0
Eqis Capital Management Inc 2016-09-30 0 Sold All -12,340 $ -209 $ 0
Commonwealth Equity Services Inc 2016-09-30 0 Sold All -12,365 $ -209 $ 0
First Mercantile Trust Co 2016-09-30 64,911 Sold Some -13,069 $ -221 $ 1,100
Miller Howard Investments Inc Ny 2016-09-30 1,417,219 Sold Some -15,280 $ -258 $ 24,021
Peak6 Investments L P 2016-09-30 0 Sold All -16,065 $ -272 $ 0
Quantitative Investment Management Llc 2016-09-30 0 Sold All -22,100 $ -374 $ 0
Dynamic Technology Lab Private Ltd 2016-09-30 0 Sold All -27,304 $ -462 $ 0
Van Eck Associates Corp 2016-09-30 198,950 Sold Some -29,490 $ -499 $ 3,372
Wespac Advisors Llc 2016-09-30 0 Sold All -30,074 $ -509 $ 0
New York State Common Retirement Fund 2016-09-30 389,286 Sold Some -31,000 $ -525 $ 6,598
Gsa Capital Partners Llp 2016-09-30 0 Sold All -33,625 $ -569 $ 0
Omers Administration Corp 2016-09-30 0 Sold All -34,400 $ -583 $ 0
Aperio Group Llc 2016-09-30 143,224 Sold Some -35,878 $ -608 $ 2,427
Buckhead Capital Management Llc 2016-09-30 160,775 Sold Some -37,850 $ -641 $ 2,725
Thompson Siegel Walmsley Llc 2016-09-30 2,985,959 Sold Some -38,644 $ -655 $ 50,612
Wedbush Securities Inc 2016-09-30 18,678 Sold Some -39,229 $ -664 $ 316
Sunnymeath Asset Management Inc 2016-09-30 0 Sold All -51,500 $ -872 $ 0
Hahn Capital Management Llc 2016-09-30 1,367,491 Sold Some -76,220 $ -1,291 $ 23,178
Engineers Gate Manager Lp 2016-09-30 0 Sold All -129,732 $ -2,198 $ 0
Assetmark Inc 2016-09-30 9,926 Sold Some -131,469 $ -2,228 $ 168
Teacher Retirement System Of Texas 2016-09-30 710,757 Sold Some -140,289 $ -2,377 $ 12,047
Steinberg Asset Management Llc 2016-09-30 474,691 Sold Some -155,019 $ -2,627 $ 8,046
Bank Of Nova Scotia 2016-09-30 0 Sold All -185,208 $ -3,139 $ 0
Antipodean Advisors Llc 2016-09-30 0 Sold All -203,000 $ -3,440 $ 0
Spot Trading L L C 2016-09-30 0 Sold All -237,700 $ -4,029 $ 0
Dimensional Fund Advisors Lp 2016-09-30 8,611,915 Sold Some -255,659 $ -4,333 $ 145,971
Pioneer Investment Management Inc 2016-09-30 0 Sold All -318,630 $ -5,400 $ 0
Third Avenue Management Llc 2016-09-30 1,702,563 Sold Some -509,157 $ -8,630 $ 28,858
Md Sass Investors Services Inc 2016-09-30 0 Sold All -565,830 $ -9,590 $ 0
Findlay Park Partners Llp 2016-09-30 3,000,000 Sold Some -621,706 $ -10,537 $ 50,850
Pictet Asset Management Ltd 2016-09-30 1,313,453 Sold Some -883,216 $ -14,970 $ 22,263